Time;durP1;ratioP1;P1;durP2;ratioP2;P2;SDS_P1;SDS_P2;PMS_P1;PMS_P2;Temp;Humidity;BMP_temperature;BMP_pressure;BME280_temperature;BME280_humidity;BME280_pressure;Samples;Min_cycle;Max_cycle;Signal;HPM_P1;HPM_P2
2023/05/14 00:02:02;;;;;;;4.88;2.90;;;;;;;12.71;77.50;101190.44;5012244;28;20164;-76
2023/05/14 00:04:28;;;;;;;5.65;3.00;;;;;;;12.26;78.04;101123.91;5010974;28;20042;-73
2023/05/14 00:06:53;;;;;;;6.65;2.90;;;;;;;12.46;79.75;101179.09;5011806;28;20128;-73
2023/05/14 00:09:18;;;;;;;4.78;2.90;;;;;;;11.88;79.11;101069.75;5012329;28;20053;-73
2023/05/14 00:11:44;;;;;;;5.93;3.10;;;;;;;12.55;79.31;101178.63;5011812;28;20026;-75
2023/05/14 00:14:10;;;;;;;5.85;3.20;;;;;;;12.29;80.32;101170.66;5012166;28;20464;-76
2023/05/14 00:16:35;;;;;;;4.70;2.90;;;;;;;12.43;79.22;101158.28;5011774;28;20030;-73
2023/05/14 00:19:01;;;;;;;5.55;3.55;;;;;;;12.09;79.79;101129.28;5012257;28;20037;-74
2023/05/14 00:21:26;;;;;;;5.30;3.15;;;;;;;11.85;80.32;101090.34;5010872;28;20067;-75
2023/05/14 00:23:51;;;;;;;6.95;3.28;;;;;;;12.20;80.88;101154.72;4989666;28;20046;-76
2023/05/14 00:26:17;;;;;;;6.15;3.15;;;;;;;12.07;81.02;101145.59;4989221;28;20440;-76
2023/05/14 00:28:42;;;;;;;4.57;2.90;;;;;;;12.08;80.72;101140.47;4987669;28;20405;-75
2023/05/14 00:31:08;;;;;;;7.13;3.05;;;;;;;11.98;80.49;101125.38;4973065;28;20501;-76
2023/05/14 00:33:33;;;;;;;5.00;2.83;;;;;;;12.19;80.21;101137.47;4989549;28;20141;-79
2023/05/14 00:35:59;;;;;;;5.43;3.40;;;;;;;12.14;81.08;101137.25;4987766;28;20037;-76
2023/05/14 00:38:27;;;;;;;6.35;3.10;;;;;;;11.86;82.15;101101.53;4972326;28;20052;-75
2023/05/14 00:40:52;;;;;;;5.57;2.90;;;;;;;11.89;82.91;101127.56;4989537;28;20074;-77
2023/05/14 00:43:19;;;;;;;5.70;3.30;;;;;;;11.73;83.26;101119.13;4989430;28;20723;-76
2023/05/14 00:45:45;;;;;;;8.30;3.75;;;;;;;11.70;82.26;101141.41;4989364;28;20060;-76
2023/05/14 00:48:11;;;;;;;5.07;2.75;;;;;;;11.84;81.23;101148.06;4973280;28;20026;-74
2023/05/14 00:50:37;;;;;;;5.25;3.28;;;;;;;11.73;80.99;101134.66;4988074;28;20046;-80
2023/05/14 00:53:03;;;;;;;5.30;2.70;;;;;;;11.68;81.30;101123.22;4988943;28;20410;-77
2023/05/14 00:55:29;;;;;;;6.15;3.17;;;;;;;11.35;83.28;101122.66;5005369;28;20042;-77
2023/05/14 00:57:56;;;;;;;5.70;3.30;;;;;;;11.16;85.39;101130.47;5011136;28;20038;-77
2023/05/14 01:00:22;;;;;;;6.57;3.22;;;;;;;11.26;85.71;101156.72;5010788;28;20038;-74
2023/05/14 01:02:47;;;;;;;7.53;3.63;;;;;;;11.21;84.92;101134.97;5011281;28;20099;-77
2023/05/14 01:05:13;;;;;;;6.18;3.15;;;;;;;11.34;85.25;101165.72;5010702;28;20034;-81
2023/05/14 01:08:08;;;;;;;6.63;3.40;;;;;;;11.25;85.54;101105.84;5009898;28;20622;-78
2023/05/14 01:10:44;;;;;;;5.75;3.40;;;;;;;11.47;86.41;101149.91;5010917;28;20558;-77
2023/05/14 01:13:19;;;;;;;5.85;3.03;;;;;;;11.21;87.35;101117.75;5009935;28;20037;-76
2023/05/14 01:15:46;;;;;;;6.03;3.75;;;;;;;11.38;87.22;101135.72;5010753;28;20411;-79
2023/05/14 01:18:15;;;;;;;5.40;3.38;;;;;;;11.32;86.50;101137.19;5009683;28;20040;-81
2023/05/14 01:20:41;;;;;;;5.03;3.63;;;;;;;11.38;86.84;101134.00;5011023;28;20034;-78
2023/05/14 01:23:07;;;;;;;4.43;3.30;;;;;;;11.43;86.40;101127.34;5009512;28;20029;-78
2023/05/14 01:25:32;;;;;;;5.15;3.40;;;;;;;11.19;86.32;101103.88;5010749;28;20032;-75
2023/05/14 01:28:04;;;;;;;5.78;3.13;;;;;;;11.33;86.49;101132.94;5009930;28;20022;-75
2023/05/14 01:30:45;;;;;;;9.57;3.67;;;;;;;11.33;87.15;101120.00;5009908;28;20088;-76
2023/05/14 01:33:14;;;;;;;6.90;3.72;;;;;;;11.38;87.19;101118.50;5010291;28;20092;-82
2023/05/14 01:35:40;;;;;;;;;;;;;;;11.38;88.28;101115.03;5011225;28;20075;-78
2023/05/14 01:38:09;;;;;;;6.82;3.45;;;;;;;11.36;89.00;101121.84;5009163;28;19913;-78
2023/05/14 01:40:36;;;;;;;7.38;3.78;;;;;;;11.25;89.06;101111.00;5010347;28;20030;-75
2023/05/14 01:43:02;;;;;;;4.93;3.58;;;;;;;11.24;90.06;101112.72;5010549;28;20496;-75
2023/05/14 01:45:29;;;;;;;9.20;3.70;;;;;;;10.94;90.29;101064.03;5009309;28;20484;-77
2023/05/14 01:47:55;;;;;;;7.38;4.07;;;;;;;11.10;90.25;101114.69;5010267;28;20029;-76
2023/05/14 01:50:21;;;;;;;5.45;3.63;;;;;;;11.07;89.50;101088.69;5010738;28;20682;-76
2023/05/14 01:52:47;;;;;;;7.53;3.67;;;;;;;11.11;89.52;101088.00;5009858;28;20057;-76
2023/05/14 01:55:13;;;;;;;7.65;4.00;;;;;;;11.17;89.68;101077.94;5010261;28;20033;-75
2023/05/14 01:57:38;;;;;;;5.85;3.83;;;;;;;11.29;89.14;101094.81;5010149;28;20042;-75
2023/05/14 02:00:04;;;;;;;7.55;3.55;;;;;;;11.14;89.13;101059.75;5009046;28;20412;-77
2023/05/14 02:02:30;;;;;;;10.02;3.60;;;;;;;11.35;88.81;101095.09;5010352;28;20022;-75
2023/05/14 02:04:55;;;;;;;7.90;3.75;;;;;;;11.45;89.76;101096.38;5009234;28;20546;-77
2023/05/14 02:07:21;;;;;;;6.50;3.60;;;;;;;11.40;90.00;101072.03;5010177;28;20515;-75
2023/05/14 02:09:46;;;;;;;7.95;3.50;;;;;;;11.64;89.64;101091.19;5009945;28;20034;-75
2023/05/14 02:12:12;;;;;;;7.88;3.75;;;;;;;11.82;89.34;101103.13;5010178;28;20038;-79
2023/05/14 02:14:37;;;;;;;6.80;3.63;;;;;;;11.85;88.02;101100.69;5008970;28;20087;-72
2023/05/14 02:17:03;;;;;;;7.68;3.97;;;;;;;11.87;87.51;101075.72;5010522;28;20057;-73
2023/05/14 02:19:29;;;;;;;6.95;3.47;;;;;;;11.74;86.92;101032.97;5010095;28;20083;-71
2023/05/14 02:21:54;;;;;;;9.43;3.45;;;;;;;12.23;86.68;101110.88;5010322;28;20018;-74
2023/05/14 02:24:20;;;;;;;6.90;4.10;;;;;;;12.19;87.39;101115.03;5009412;28;20030;-72
2023/05/14 02:26:46;;;;;;;6.05;3.65;;;;;;;12.05;87.86;101109.28;5010306;28;20030;-72
2023/05/14 02:29:11;;;;;;;6.53;3.97;;;;;;;11.71;88.44;101063.00;5009742;28;20424;-73
2023/05/14 02:31:37;;;;;;;8.05;4.03;;;;;;;11.85;88.17;101104.94;5010096;28;20030;-72
2023/05/14 02:34:04;;;;;;;7.22;3.85;;;;;;;11.47;88.34;101019.75;5009945;28;20091;-71
2023/05/14 02:36:29;;;;;;;10.23;3.80;;;;;;;11.56;88.64;101020.13;5010011;28;20107;-72
2023/05/14 02:38:56;;;;;;;6.68;3.88;;;;;;;11.99;89.04;101109.03;5007202;28;20773;-73
2023/05/14 02:41:21;;;;;;;8.75;4.10;;;;;;;12.06;89.59;101107.56;4992498;28;20403;-73
2023/05/14 02:43:46;;;;;;;7.10;4.38;;;;;;;12.10;89.28;101107.78;5009720;28;20030;-71
2023/05/14 02:46:12;;;;;;;9.32;4.25;;;;;;;11.92;89.30;101091.47;5010096;28;20026;-71
2023/05/14 02:48:37;;;;;;;9.20;3.47;;;;;;;12.02;89.00;101122.09;5009168;28;20088;-73
2023/05/14 02:51:03;;;;;;;12.18;4.25;;;;;;;11.98;88.72;101120.22;5012858;28;20124;-73
2023/05/14 02:53:28;;;;;;;12.55;3.75;;;;;;;11.93;88.48;101126.88;5009538;28;20054;-73
2023/05/14 02:55:53;;;;;;;8.02;4.22;;;;;;;11.61;88.22;101070.38;5010055;28;20033;-72
2023/05/14 02:58:19;;;;;;;11.80;4.13;;;;;;;11.97;88.23;101128.78;5009647;28;20045;-72
2023/05/14 03:00:44;;;;;;;9.43;4.43;;;;;;;11.65;88.53;101071.34;5010974;28;20030;-73
2023/05/14 03:03:10;;;;;;;8.75;5.05;;;;;;;11.97;88.19;101133.97;5013559;28;20395;-73
2023/05/14 03:05:35;;;;;;;10.02;5.38;;;;;;;12.00;88.31;101125.44;5013333;28;20469;-72
2023/05/14 03:08:01;;;;;;;11.50;5.20;;;;;;;12.14;87.17;101119.16;5009722;28;20467;-73
2023/05/14 03:10:26;;;;;;;11.32;5.45;;;;;;;11.66;85.36;101024.00;5012476;28;20026;-73
2023/05/14 03:12:51;;;;;;;8.23;4.70;;;;;;;12.23;84.58;101105.69;5012877;28;20036;-73
2023/05/14 03:15:17;;;;;;;7.78;4.95;;;;;;;12.36;84.22;101117.41;5013354;28;20030;-77
2023/05/14 03:17:42;;;;;;;9.38;5.47;;;;;;;12.42;83.78;101117.66;5013010;28;20113;-72
2023/05/14 03:20:08;;;;;;;10.55;4.90;;;;;;;12.44;83.04;101127.25;5012811;28;20029;-76
2023/05/14 03:22:34;;;;;;;10.80;5.43;;;;;;;12.57;82.68;101118.28;5012744;28;20026;-72
2023/05/14 03:24:59;;;;;;;10.73;4.88;;;;;;;12.57;82.53;101122.56;5012467;28;20028;-73
2023/05/14 03:27:25;;;;;;;9.20;4.30;;;;;;;12.13;81.55;101066.47;5012678;28;20033;-71
2023/05/14 03:29:50;;;;;;;7.72;4.30;;;;;;;12.48;81.80;101138.63;5011493;28;20068;-72
2023/05/14 03:32:16;;;;;;;11.13;4.13;;;;;;;12.51;83.36;101133.56;5012956;28;20022;-72
2023/05/14 03:34:43;;;;;;;8.27;3.95;;;;;;;12.44;82.29;101119.47;5012498;28;20032;-72
2023/05/14 03:37:09;;;;;;;7.28;4.18;;;;;;;12.52;82.23;101134.44;5012645;28;20037;-71
2023/05/14 03:39:34;;;;;;;5.82;3.47;;;;;;;12.54;81.87;101144.03;5012565;28;20037;-72
2023/05/14 03:42:00;;;;;;;9.63;4.45;;;;;;;12.54;82.13;101141.47;5012610;28;20029;-73
2023/05/14 03:44:25;;;;;;;10.00;4.38;;;;;;;12.38;82.47;101103.69;5012865;28;20034;-73
2023/05/14 03:46:51;;;;;;;8.48;4.50;;;;;;;12.24;82.81;101066.03;5012978;28;20026;-73
2023/05/14 03:49:16;;;;;;;10.38;4.10;;;;;;;12.62;82.18;101145.25;5012424;28;20045;-73
2023/05/14 03:51:42;;;;;;;7.20;3.70;;;;;;;12.74;80.41;101144.81;5011860;28;20040;-73
2023/05/14 03:54:07;;;;;;;8.45;3.38;;;;;;;12.75;80.51;101149.19;5011859;28;20060;-77
2023/05/14 03:56:33;;;;;;;11.00;4.57;;;;;;;12.25;82.35;101065.19;5012281;28;20026;-73
2023/05/14 03:58:58;;;;;;;9.60;4.05;;;;;;;12.72;81.33;101143.91;5012068;28;20032;-73
2023/05/14 04:01:23;;;;;;;9.65;3.63;;;;;;;12.17;82.90;101046.78;5012541;28;20401;-73
2023/05/14 04:03:49;;;;;;;8.95;3.92;;;;;;;12.73;80.95;101147.38;5011989;28;20076;-73
2023/05/14 04:06:15;;;;;;;8.52;3.25;;;;;;;12.51;78.21;101120.63;5012364;28;20072;-72
2023/05/14 04:08:40;;;;;;;6.90;3.53;;;;;;;12.50;79.39;101136.97;5011713;28;20033;-75
2023/05/14 04:11:05;;;;;;;9.77;3.63;;;;;;;12.71;79.86;101152.50;5011995;28;20036;-73
2023/05/14 04:13:31;;;;;;;10.93;4.28;;;;;;;11.84;80.26;100994.53;5012015;28;20069;-73
2023/05/14 04:15:56;;;;;;;7.57;3.20;;;;;;;12.55;80.81;101108.69;5012137;28;20061;-73
2023/05/14 04:18:22;;;;;;;8.38;3.75;;;;;;;12.67;80.32;101132.44;5012040;28;20104;-74
2023/05/14 04:20:47;;;;;;;8.98;3.60;;;;;;;12.66;80.79;101141.06;5011648;28;20108;-75
2023/05/14 04:23:12;;;;;;;12.77;3.63;;;;;;;12.80;81.34;101154.56;5011363;28;20080;-76
2023/05/14 04:25:38;;;;;;;6.18;3.00;;;;;;;12.75;81.21;101167.31;5011832;28;20029;-75
2023/05/14 04:28:03;;;;;;;7.53;4.05;;;;;;;12.74;79.32;101157.78;5011960;28;20104;-73
2023/05/14 04:30:29;;;;;;;11.90;4.38;;;;;;;12.74;80.26;101152.59;5011754;28;20105;-73
2023/05/14 04:32:54;;;;;;;10.38;4.47;;;;;;;12.67;81.63;101129.84;5011726;28;20034;-73
2023/05/14 04:35:20;;;;;;;13.75;3.95;;;;;;;12.88;80.01;101163.50;5011795;28;20032;-72
2023/05/14 04:37:47;;;;;;;12.88;5.28;;;;;;;12.45;82.08;101087.59;5011501;28;20038;-72
2023/05/14 04:40:15;;;;;;;8.77;5.28;;;;;;;12.89;83.50;101146.25;5011549;28;20037;-73
2023/05/14 04:42:41;;;;;;;12.05;6.47;;;;;;;12.65;84.40;101130.63;5011338;28;20038;-75
2023/05/14 04:45:07;;;;;;;9.45;5.40;;;;;;;12.70;84.07;101155.91;5011411;28;20538;-75
2023/05/14 04:47:33;;;;;;;10.65;5.05;;;;;;;12.62;83.99;101146.94;5011406;28;20025;-73
2023/05/14 04:49:59;;;;;;;9.80;5.18;;;;;;;12.65;84.30;101141.88;5011126;28;20124;-74
2023/05/14 04:52:24;;;;;;;7.20;4.30;;;;;;;12.40;83.14;101072.69;5010926;28;20128;-73
2023/05/14 04:54:50;;;;;;;10.60;4.35;;;;;;;12.82;85.50;101145.13;5010819;28;20029;-71
2023/05/14 04:57:15;;;;;;;5.82;3.03;;;;;;;12.84;82.99;101134.84;5011244;28;20462;-72
2023/05/14 04:59:41;;;;;;;4.53;3.28;;;;;;;13.00;82.62;101160.50;5011085;28;20061;-72
2023/05/14 05:02:06;;;;;;;6.40;3.50;;;;;;;13.12;81.06;101162.66;5010669;28;20034;-73
2023/05/14 05:04:31;;;;;;;6.53;3.50;;;;;;;13.10;81.94;101161.75;5010728;28;20030;-72
2023/05/14 05:06:57;;;;;;;10.32;4.50;;;;;;;12.90;81.47;101102.25;5010535;28;20030;-72
2023/05/14 05:09:22;;;;;;;5.53;3.28;;;;;;;13.18;79.49;101162.88;5011003;28;20026;-73
2023/05/14 05:11:48;;;;;;;8.18;3.50;;;;;;;12.66;81.71;101067.63;5010994;28;20049;-75
2023/05/14 05:14:13;;;;;;;4.88;3.17;;;;;;;12.90;78.69;101106.56;5008785;28;20424;-76
2023/05/14 05:16:39;;;;;;;8.27;3.75;;;;;;;12.99;80.42;101163.03;5010525;28;20526;-75
2023/05/14 05:19:04;;;;;;;4.80;2.95;;;;;;;13.00;81.27;101141.50;5010864;28;20026;-74
2023/05/14 05:21:30;;;;;;;7.88;3.25;;;;;;;13.19;79.61;101174.16;5010405;28;20040;-75
2023/05/14 05:23:55;;;;;;;6.82;3.20;;;;;;;13.19;80.47;101180.22;5009165;28;20041;-72
2023/05/14 05:26:25;;;;;;;8.23;3.40;;;;;;;13.08;79.95;101135.75;5011033;28;20022;-73
2023/05/14 05:28:50;;;;;;;7.20;3.53;;;;;;;13.55;80.37;101205.78;5028925;28;20112;-71
2023/05/14 05:31:16;;;;;;;12.93;4.53;;;;;;;13.54;78.35;101177.19;5027814;28;20179;-74
2023/05/14 05:33:41;;;;;;;6.55;3.53;;;;;;;13.84;82.22;101202.47;5027802;28;20452;-74
2023/05/14 05:36:07;;;;;;;11.10;3.88;;;;;;;13.98;80.04;101214.25;5027480;28;20040;-73
2023/05/14 05:38:32;;;;;;;10.90;3.47;;;;;;;13.48;77.85;101101.75;5027889;28;20030;-73
2023/05/14 05:40:58;;;;;;;9.65;4.13;;;;;;;14.16;79.00;101203.59;5027711;28;20045;-73
2023/05/14 05:43:23;;;;;;;9.68;3.50;;;;;;;13.77;78.54;101099.28;5027716;28;20033;-73
2023/05/14 05:45:49;;;;;;;8.50;3.40;;;;;;;14.36;77.94;101170.50;5027554;28;20041;-71
2023/05/14 05:48:14;;;;;;;9.60;3.72;;;;;;;14.47;78.97;101189.03;5027802;28;20039;-71
2023/05/14 05:50:59;;;;;;;11.98;4.00;;;;;;;14.56;79.90;101202.31;5007615;28;20121;-73
2023/05/14 05:53:25;;;;;;;8.75;3.15;;;;;;;14.02;79.62;101103.59;5007632;28;20138;-73
2023/05/14 05:55:50;;;;;;;7.47;3.13;;;;;;;14.56;79.29;101185.84;5007799;28;20034;-73
2023/05/14 05:58:17;;;;;;;6.63;4.30;;;;;;;14.10;79.01;101103.84;5007857;28;20066;-74
2023/05/14 06:00:43;;;;;;;8.63;3.60;;;;;;;14.60;79.67;101187.69;5007662;28;20033;-74
2023/05/14 06:03:10;;;;;;;10.20;3.45;;;;;;;14.27;81.18;101120.84;5007783;28;20045;-71
2023/05/14 06:05:35;;;;;;;9.63;3.28;;;;;;;14.71;79.74;101196.75;5027762;28;20042;-72
2023/05/14 06:08:01;;;;;;;8.73;3.50;;;;;;;14.63;76.58;101169.63;5025897;28;20160;-73
2023/05/14 06:10:27;;;;;;;4.90;3.05;;;;;;;14.81;76.49;101199.66;5024710;28;20490;-73
2023/05/14 06:12:52;;;;;;;4.55;2.75;;;;;;;14.42;75.91;101140.34;5025632;28;20127;-70
2023/05/14 06:15:18;;;;;;;5.63;3.15;;;;;;;14.76;74.97;101180.44;5025041;28;20507;-70
2023/05/14 06:17:43;;;;;;;7.20;2.88;;;;;;;14.95;75.25;101203.56;5024998;28;20049;-72
2023/05/14 06:20:10;;;;;;;6.68;3.08;;;;;;;15.08;75.71;101210.03;5024741;28;20117;-73
2023/05/14 06:22:35;;;;;;;8.77;2.90;;;;;;;15.09;76.47;101191.00;5027026;28;20044;-72
2023/05/14 06:25:01;;;;;;;9.70;3.53;;;;;;;15.18;73.40;101206.00;5027799;28;20033;-72
2023/05/14 06:27:26;;;;;;;11.07;3.78;;;;;;;15.27;73.79;101208.84;5028805;28;20075;-71
2023/05/14 06:29:51;;;;;;;6.47;3.03;;;;;;;15.24;74.04;101205.28;5028704;28;20029;-73
2023/05/14 06:32:17;;;;;;;8.70;3.67;;;;;;;15.20;72.83;101200.00;5029483;28;20411;-73
2023/05/14 06:34:42;;;;;;;7.47;2.90;;;;;;;15.27;73.76;101211.44;5029720;28;20077;-74
2023/05/14 06:37:08;;;;;;;7.28;3.40;;;;;;;14.99;72.41;101162.94;5032215;28;20033;-71
2023/05/14 06:39:37;;;;;;;10.95;4.28;;;;;;;14.94;71.94;101138.50;5033338;28;20475;-73
2023/05/14 06:42:03;;;;;;;11.82;5.00;;;;;;;15.39;76.93;101228.25;5033439;28;20039;-74
2023/05/14 06:44:29;;;;;;;15.23;5.80;;;;;;;14.23;75.77;101088.72;5032891;28;20488;-72
2023/05/14 06:46:54;;;;;;;15.07;5.20;;;;;;;15.07;77.67;101229.06;5032906;28;20044;-72
2023/05/14 06:49:20;;;;;;;14.25;5.00;;;;;;;14.80;75.91;101174.50;5030834;28;20414;-72
2023/05/14 06:51:45;;;;;;;12.93;5.10;;;;;;;15.13;76.27;101229.25;5009616;28;20072;-73
2023/05/14 06:54:11;;;;;;;13.57;5.30;;;;;;;14.52;74.96;101140.69;5013340;28;20089;-75
2023/05/14 06:56:57;;;;;;;10.40;4.40;;;;;;;15.06;76.30;101242.91;5049176;28;20048;-73
2023/05/14 06:59:22;;;;;;;13.07;4.88;;;;;;;14.62;76.77;101164.38;5050861;28;20466;-74
2023/05/14 07:01:48;;;;;;;8.98;4.07;;;;;;;15.17;74.71;101241.50;5050861;28;20519;-73
2023/05/14 07:04:13;;;;;;;6.32;3.90;;;;;;;15.24;74.00;101241.69;5051182;28;20071;-73
2023/05/14 07:06:39;;;;;;;9.35;4.47;;;;;;;15.21;76.82;101245.09;5050679;28;20151;-72
2023/05/14 07:09:06;;;;;;;16.67;4.35;;;;;;;14.68;74.78;101149.88;5050714;28;20065;-78
2023/05/14 07:11:32;;;;;;;14.93;4.88;;;;;;;15.20;77.41;101220.81;5049272;28;20041;-72
2023/05/14 07:13:58;;;;;;;10.63;5.13;;;;;;;15.35;74.62;101232.47;5048080;28;20087;-73
2023/05/14 07:16:24;;;;;;;10.07;4.82;;;;;;;15.39;74.14;101228.25;5047888;28;20033;-73
2023/05/14 07:18:50;;;;;;;11.13;4.63;;;;;;;15.08;74.95;101141.50;5047930;28;20028;-75
2023/05/14 07:21:16;;;;;;;10.15;4.43;;;;;;;15.24;73.59;101150.66;5064868;28;20032;-73
2023/05/14 07:23:41;;;;;;;16.17;5.75;;;;;;;15.77;73.02;101231.97;5048097;28;20043;-74
2023/05/14 07:26:07;;;;;;;15.20;5.30;;;;;;;15.60;71.76;101191.56;5048290;28;20164;-74
2023/05/14 07:28:33;;;;;;;8.85;4.35;;;;;;;15.89;71.00;101221.03;5020396;28;20049;-74
2023/05/14 07:30:59;;;;;;;15.32;5.32;;;;;;;15.93;71.78;101222.88;5010514;28;20018;-75
2023/05/14 07:33:26;;;;;;;14.18;4.57;;;;;;;16.08;71.00;101229.34;5011163;28;20091;-75
2023/05/14 07:35:53;;;;;;;8.43;4.53;;;;;;;16.11;69.88;101229.41;5012745;28;20026;-73
2023/05/14 07:38:19;;;;;;;7.25;3.78;;;;;;;16.16;68.96;101233.91;5012410;28;20041;-75
2023/05/14 07:40:44;;;;;;;7.80;3.90;;;;;;;16.20;68.66;101231.38;5010343;28;20037;-73
2023/05/14 07:43:10;;;;;;;15.65;4.95;;;;;;;16.20;67.66;101231.38;5010921;28;20034;-74
2023/05/14 07:45:36;;;;;;;17.58;4.40;;;;;;;16.16;69.02;101254.75;5012535;28;20022;-73
2023/05/14 07:48:02;;;;;;;14.07;4.38;;;;;;;16.18;69.07;101253.06;5011954;28;20121;-75
2023/05/14 07:50:28;;;;;;;9.27;3.65;;;;;;;16.21;70.60;101257.47;5011945;28;20550;-73
2023/05/14 07:52:53;;;;;;;10.80;4.05;;;;;;;16.24;69.61;101257.56;5012240;28;20076;-74
2023/05/14 07:55:18;;;;;;;9.45;3.28;;;;;;;16.26;68.86;101255.00;5012000;28;20105;-75
2023/05/14 07:57:44;;;;;;;9.73;3.53;;;;;;;16.28;69.42;101262.00;5012099;28;20124;-73
2023/05/14 08:00:11;;;;;;;14.40;4.10;;;;;;;16.34;70.31;101261.28;5012097;28;20057;-74
2023/05/14 08:02:36;;;;;;;8.48;3.97;;;;;;;16.34;70.20;101262.16;5012421;28;20029;-73
2023/05/14 08:05:02;;;;;;;9.43;3.70;;;;;;;16.23;71.61;101249.72;5010842;28;20033;-73
2023/05/14 08:07:28;;;;;;;7.68;4.35;;;;;;;16.27;69.65;101265.44;5009838;28;20069;-73
2023/05/14 08:09:54;;;;;;;10.95;4.82;;;;;;;16.29;69.83;101274.19;5009799;28;20026;-75
2023/05/14 08:12:20;;;;;;;9.88;4.43;;;;;;;16.39;70.79;101264.03;5009530;28;20030;-74
2023/05/14 08:14:46;;;;;;;8.98;4.10;;;;;;;16.31;71.36;101225.63;5009723;28;20026;-74
2023/05/14 08:17:12;;;;;;;11.18;4.45;;;;;;;16.41;71.30;101238.88;5010655;28;20026;-75
2023/05/14 08:19:37;;;;;;;11.02;4.82;;;;;;;16.58;71.64;101249.72;5010924;28;20065;-74
2023/05/14 08:22:03;;;;;;;6.05;3.53;;;;;;;16.13;73.51;101173.91;5027572;28;20480;-78
2023/05/14 08:24:28;;;;;;;10.70;4.10;;;;;;;16.56;74.25;101240.97;5010803;28;20030;-75
2023/05/14 08:26:54;;;;;;;11.13;4.22;;;;;;;16.60;73.68;101243.72;5011719;28;20104;-74
2023/05/14 08:29:20;;;;;;;11.73;5.15;;;;;;;16.70;75.04;101243.91;5011838;28;20545;-74
2023/05/14 08:31:50;;;;;;;8.05;4.25;;;;;;;16.76;74.99;101247.56;5011756;28;20022;-75
2023/05/14 08:34:16;;;;;;;5.68;3.95;;;;;;;16.53;73.70;101184.44;5011978;28;20030;-78
2023/05/14 08:36:42;;;;;;;8.52;3.90;;;;;;;16.79;74.71;101218.94;5011693;28;20084;-75
2023/05/14 08:39:08;;;;;;;9.48;4.95;;;;;;;16.22;74.38;101109.88;5011782;28;20104;-78
2023/05/14 08:41:34;;;;;;;9.00;5.07;;;;;;;16.88;73.33;101226.09;5011127;28;20678;-74
2023/05/14 08:44:17;;;;;;;8.68;4.78;;;;;;;17.01;72.88;101236.84;5011549;28;20034;-72
2023/05/14 08:46:43;;;;;;;8.30;4.97;;;;;;;16.95;72.72;101243.69;5011848;28;20068;-74
2023/05/14 08:49:36;;;;;;;11.77;4.60;;;;;;;16.98;73.21;101245.50;5011475;28;20037;-74
2023/05/14 08:52:03;;;;;;;8.20;3.85;;;;;;;17.01;73.10;101258.63;5012206;28;20026;-75
2023/05/14 08:54:31;;;;;;;9.48;3.83;;;;;;;17.00;72.24;101242.91;5015917;28;20542;-76
2023/05/14 08:56:57;;;;;;;7.63;4.07;;;;;;;16.99;72.44;101231.59;5011229;28;20025;-75
2023/05/14 08:59:23;;;;;;;7.80;3.75;;;;;;;16.93;72.50;101219.28;5010404;28;20547;-77
2023/05/14 09:01:52;;;;;;;10.15;4.47;;;;;;;17.02;72.67;101228.19;5011386;28;20022;-75
2023/05/14 09:04:22;;;;;;;13.45;4.70;;;;;;;16.96;71.23;101224.59;5010959;28;20021;-74
2023/05/14 09:06:55;;;;;;;8.85;4.13;;;;;;;17.00;70.66;101235.09;5010420;28;20514;-76
2023/05/14 09:09:21;;;;;;;8.93;4.35;;;;;;;16.81;70.46;101208.56;5010760;28;20029;-75
2023/05/14 09:11:48;;;;;;;9.35;4.78;;;;;;;17.00;70.60;101261.16;5010868;28;20026;-76
2023/05/14 09:14:14;;;;;;;10.25;4.80;;;;;;;17.02;70.39;101272.53;5010832;28;20522;-77
2023/05/14 09:16:43;;;;;;;8.10;4.32;;;;;;;17.04;70.19;101269.13;5009653;28;20033;-75
2023/05/14 09:19:09;;;;;;;6.88;4.30;;;;;;;16.66;70.02;101214.31;5009549;28;20030;-75
2023/05/14 09:21:35;;;;;;;10.10;4.28;;;;;;;16.88;72.03;101285.22;5010680;28;20518;-76
2023/05/14 09:24:00;;;;;;;9.35;3.80;;;;;;;16.84;73.22;101292.09;5010489;28;20034;-76
2023/05/14 09:26:30;;;;;;;9.02;4.03;;;;;;;16.58;76.12;101267.97;5010843;28;20032;-76
2023/05/14 09:29:00;;;;;;;11.15;3.83;;;;;;;16.21;80.78;101226.19;5010967;28;20056;-75
2023/05/14 09:31:30;;;;;;;8.73;4.28;;;;;;;16.65;81.82;101303.78;5008619;28;20033;-75
2023/05/14 09:33:56;;;;;;;6.63;4.13;;;;;;;16.61;82.97;101308.03;5024896;28;20057;-71
2023/05/14 09:36:23;;;;;;;8.45;4.78;;;;;;;16.52;81.34;101273.91;5030283;28;20029;-74
2023/05/14 09:38:49;;;;;;;8.27;4.32;;;;;;;16.61;79.73;101295.00;5029765;28;20030;-74
2023/05/14 09:41:15;;;;;;;8.30;4.63;;;;;;;16.66;79.01;101293.41;5029732;28;20541;-72
2023/05/14 09:43:40;;;;;;;10.90;4.47;;;;;;;16.65;78.00;101294.22;5029510;28;20030;-75
2023/05/14 09:46:06;;;;;;;11.57;6.72;;;;;;;16.70;84.97;101285.63;5022925;28;20039;-73
2023/05/14 09:48:31;;;;;;;7.00;4.95;;;;;;;16.77;87.05;101296.28;5029300;28;20032;-76
2023/05/14 09:50:57;;;;;;;7.93;4.10;;;;;;;16.71;83.99;101288.31;5027069;28;20132;-74
2023/05/14 09:53:22;;;;;;;9.70;4.22;;;;;;;16.72;84.31;101268.31;5029492;28;20115;-73
2023/05/14 09:55:48;;;;;;;7.55;4.40;;;;;;;16.79;86.37;101263.28;5028910;28;20048;-77
2023/05/14 09:58:13;;;;;;;9.13;5.63;;;;;;;16.81;86.02;101258.13;5030140;28;20034;-72
2023/05/14 10:00:44;;;;;;;9.38;5.15;;;;;;;16.74;83.95;101249.25;5026357;28;21138;-72
2023/05/14 10:03:12;;;;;;;12.88;6.05;;;;;;;16.60;85.89;101202.00;5027510;28;20049;-70
2023/05/14 10:05:40;;;;;;;8.43;5.00;;;;;;;16.81;85.50;101247.69;5027921;28;20036;-71
2023/05/14 10:08:26;;;;;;;13.20;6.35;;;;;;;16.74;86.31;101233.59;5009997;28;20388;-76
2023/05/14 10:10:57;;;;;;;7.95;5.03;;;;;;;16.72;85.42;101219.63;5013209;28;20026;-73
2023/05/14 10:13:29;;;;;;;9.02;4.95;;;;;;;16.58;89.07;101175.00;5014332;28;20049;-70
2023/05/14 10:16:32;;;;;;;10.20;4.85;;;;;;;16.93;86.16;101232.34;5013844;28;20038;-69
2023/05/14 10:19:04;;;;;;;8.88;4.47;;;;;;;16.90;84.56;101214.00;4987477;28;20034;-72
2023/05/14 10:21:33;;;;;;;6.55;4.32;;;;;;;16.97;83.64;101233.28;4991130;28;20044;-68
2023/05/14 10:23:59;;;;;;;9.98;4.28;;;;;;;16.99;84.86;101234.22;4991861;28;20037;-71
2023/05/14 10:26:25;;;;;;;9.35;4.80;;;;;;;17.01;85.45;101229.94;4991793;28;20038;-72
2023/05/14 10:28:50;;;;;;;6.97;4.60;;;;;;;16.87;88.64;101207.81;4991912;28;20491;-73
2023/05/14 10:31:16;;;;;;;6.85;4.32;;;;;;;16.89;88.85;101209.63;4992087;28;20568;-70
2023/05/14 10:33:49;;;;;;;10.15;6.45;;;;;;;16.08;88.03;101068.72;4991710;28;20026;-69
2023/05/14 10:36:19;;;;;;;8.32;5.03;;;;;;;16.76;87.86;101211.06;4991413;28;20042;-68
2023/05/14 10:38:45;;;;;;;8.38;5.00;;;;;;;16.74;91.02;101206.66;4991816;28;20045;-68
2023/05/14 10:41:14;;;;;;;7.80;4.55;;;;;;;16.68;92.33;101203.91;4991651;28;20105;-70
2023/05/14 10:43:41;;;;;;;6.43;4.17;;;;;;;16.28;87.26;101190.78;4991779;28;20042;-74
2023/05/14 10:46:08;;;;;;;6.97;3.83;;;;;;;15.80;86.42;101159.16;4991755;28;20258;-74
2023/05/14 10:48:35;;;;;;;6.55;3.85;;;;;;;15.84;88.64;101179.25;4991235;28;20046;-73
2023/05/14 10:51:01;;;;;;;9.90;5.15;;;;;;;15.64;91.93;101142.25;4991347;28;20080;-69
2023/05/14 10:53:36;;;;;;;8.18;4.40;;;;;;;16.03;93.24;101178.88;4991691;28;20074;-67
2023/05/14 10:56:06;;;;;;;9.88;5.05;;;;;;;16.01;93.82;101171.91;5013353;28;20488;-70
2023/05/14 10:58:38;;;;;;;7.15;3.97;;;;;;;15.96;89.18;101163.09;5013339;28;20033;-68
2023/05/14 11:01:08;;;;;;;8.32;4.40;;;;;;;16.04;92.75;101173.69;5013395;28;20017;-73
2023/05/14 11:03:43;;;;;;;;;;;;;;;16.17;93.48;101180.09;5013937;28;20105;-71
2023/05/14 11:06:12;;;;;;;8.45;4.80;;;;;;;16.23;92.61;101172.44;5013363;28;19909;-69
2023/05/14 11:08:38;;;;;;;7.38;4.68;;;;;;;16.12;90.26;101171.28;5013472;28;20053;-69
2023/05/14 11:11:04;;;;;;;6.55;4.55;;;;;;;16.01;91.60;101160.56;5013449;28;20034;-71
2023/05/14 11:13:31;;;;;;;19.50;13.88;;;;;;;16.12;91.47;101171.28;5012878;28;20431;-71
2023/05/14 11:15:57;;;;;;;7.30;4.75;;;;;;;16.23;92.42;101174.16;5013263;28;20578;-72
2023/05/14 11:18:27;;;;;;;11.32;6.43;;;;;;;16.18;88.72;101158.41;5013026;28;20053;-70
2023/05/14 11:20:53;;;;;;;7.90;4.90;;;;;;;16.32;87.04;101190.91;5011638;28;20523;-71
2023/05/14 11:23:22;;;;;;;9.38;4.30;;;;;;;16.24;89.38;101189.81;5012494;28;20037;-71